Time;durP1;ratioP1;P1;durP2;ratioP2;P2;SDS_P1;SDS_P2;PMS_P1;PMS_P2;Temp;Humidity;BMP_temperature;BMP_pressure;BME280_temperature;BME280_humidity;BME280_pressure;Samples;Min_cycle;Max_cycle;Signal;HPM_P1;HPM_P2
2022/07/11 00:01:08;;;;;;;4.75;3.10;;;;;;;;;;1761442;80;21005;-64
2022/07/11 00:03:36;;;;;;;4.03;3.47;;;;;;;;;;1761582;80;21481;-64
2022/07/11 00:06:02;;;;;;;5.92;3.35;;;;;;;;;;1731030;82;21782;-64
2022/07/11 00:08:29;;;;;;;3.80;3.40;;;;;;;;;;1710329;83;21045;-64
2022/07/11 00:10:55;;;;;;;4.25;3.27;;;;;;;;;;1741744;82;21092;-64
2022/07/11 00:13:21;;;;;;;5.33;3.50;;;;;;;;;;1730059;82;21028;-66
2022/07/11 00:15:47;;;;;;;4.67;3.00;;;;;;;;;;1726804;82;20997;-64
2022/07/11 00:18:13;;;;;;;4.12;3.08;;;;;;;;;;1738698;82;21033;-64
2022/07/11 00:20:39;;;;;;;4.47;3.45;;;;;;;;;;1742910;82;21025;-64
2022/07/11 00:23:05;;;;;;;5.47;3.50;;;;;;;;;;1723348;82;21029;-64
2022/07/11 00:25:31;;;;;;;3.98;3.17;;;;;;;;;;1719723;83;21065;-64
2022/07/11 00:27:57;;;;;;;4.72;3.27;;;;;;;;;;1742267;82;22093;-64
2022/07/11 00:30:23;;;;;;;4.20;3.12;;;;;;;;;;1743092;82;21029;-65
2022/07/11 00:32:49;;;;;;;3.87;3.27;;;;;;;;;;1703349;83;21105;-64
2022/07/11 00:35:16;;;;;;;3.67;2.92;;;;;;;;;;1701378;84;21519;-65
2022/07/11 00:37:43;;;;;;;5.97;4.25;;;;;;;;;;1701254;84;21040;-65
2022/07/11 00:40:09;;;;;;;5.45;3.22;;;;;;;;;;1757876;81;20967;-65
2022/07/11 00:42:35;;;;;;;3.33;2.75;;;;;;;;;;1769551;81;21032;-65
2022/07/11 00:45:01;;;;;;;4.97;3.85;;;;;;;;;;1771160;81;22078;-65
2022/07/11 00:47:28;;;;;;;7.08;3.40;;;;;;;;;;1770286;81;21064;-65
2022/07/11 00:49:54;;;;;;;3.87;3.15;;;;;;;;;;1771640;81;21025;-65
2022/07/11 00:52:20;;;;;;;4.87;3.70;;;;;;;;;;1751961;81;21080;-65
2022/07/11 00:54:46;;;;;;;4.83;3.55;;;;;;;;;;1771215;81;21039;-65
2022/07/11 00:57:13;;;;;;;6.22;3.80;;;;;;;;;;1769947;81;21008;-64
2022/07/11 00:59:39;;;;;;;4.45;3.40;;;;;;;;;;1768424;81;21043;-65
2022/07/11 01:04:47;;;;;;;6.10;3.75;;;;;;;;;;1722803;80;72704;-65
2022/07/11 01:07:14;;;;;;;4.53;3.42;;;;;;;;;;1737024;82;21058;-64
2022/07/11 01:09:40;;;;;;;5.87;3.70;;;;;;;;;;1693587;85;21024;-64
2022/07/11 01:12:06;;;;;;;4.95;3.50;;;;;;;;;;1741116;81;21577;-63
2022/07/11 01:14:32;;;;;;;5.78;3.27;;;;;;;;;;1693616;85;20997;-64
2022/07/11 01:16:59;;;;;;;4.45;3.50;;;;;;;;;;1741006;82;21550;-64
2022/07/11 01:19:25;;;;;;;4.30;3.47;;;;;;;;;;1705511;84;21057;-64
2022/07/11 01:21:52;;;;;;;4.42;3.40;;;;;;;;;;1675347;85;21079;-64
2022/07/11 01:24:18;;;;;;;5.62;3.25;;;;;;;;;;1693154;85;21565;-64
2022/07/11 01:26:44;;;;;;;5.53;3.72;;;;;;;;;;1740857;82;21052;-64
2022/07/11 01:29:11;;;;;;;4.42;3.52;;;;;;;;;;1692962;83;21044;-65
2022/07/11 01:31:38;;;;;;;6.42;3.90;;;;;;;;;;1741088;82;21680;-64
2022/07/11 01:34:04;;;;;;;4.70;3.55;;;;;;;;;;1693603;85;21088;-64
2022/07/11 01:36:32;;;;;;;5.15;3.50;;;;;;;;;;1740899;82;21083;-64
2022/07/11 01:38:58;;;;;;;6.28;4.00;;;;;;;;;;1740933;82;21105;-64
2022/07/11 01:41:24;;;;;;;8.05;4.05;;;;;;;;;;1693450;85;21060;-64
2022/07/11 01:43:51;;;;;;;5.42;3.42;;;;;;;;;;1740928;82;21045;-64
2022/07/11 01:46:18;;;;;;;5.37;3.75;;;;;;;;;;1740788;82;21031;-64
2022/07/11 01:48:44;;;;;;;5.78;3.55;;;;;;;;;;1741120;82;21481;-64
2022/07/11 01:51:11;;;;;;;5.50;3.65;;;;;;;;;;1693887;83;21044;-63
2022/07/11 01:53:37;;;;;;;6.05;3.80;;;;;;;;;;1740968;82;21066;-63
2022/07/11 01:56:04;;;;;;;6.42;3.87;;;;;;;;;;1693785;85;21040;-64
2022/07/11 01:58:30;;;;;;;6.20;3.52;;;;;;;;;;1741005;82;21113;-64
2022/07/11 02:00:57;;;;;;;4.50;3.40;;;;;;;;;;1694060;85;21513;-65
2022/07/11 02:03:23;;;;;;;4.62;3.33;;;;;;;;;;1740834;81;21055;-65
2022/07/11 02:05:51;;;;;;;4.30;3.45;;;;;;;;;;1740415;82;21499;-65
2022/07/11 02:08:17;;;;;;;7.05;3.65;;;;;;;;;;1738938;82;21530;-65
2022/07/11 02:10:44;;;;;;;5.35;3.72;;;;;;;;;;1693599;85;21100;-65
2022/07/11 02:13:11;;;;;;;6.85;3.77;;;;;;;;;;1741122;82;21022;-65
2022/07/11 02:15:38;;;;;;;6.70;3.47;;;;;;;;;;1741236;81;21553;-65
2022/07/11 02:18:06;;;;;;;5.37;3.22;;;;;;;;;;1744121;81;21090;-65
2022/07/11 02:20:32;;;;;;;5.70;3.58;;;;;;;;;;1740894;82;21045;-65
2022/07/11 02:22:58;;;;;;;5.25;3.72;;;;;;;;;;1740584;82;21072;-65
2022/07/11 02:25:25;;;;;;;3.90;2.85;;;;;;;;;;1705665;84;21043;-64
2022/07/11 02:27:51;;;;;;;5.22;3.25;;;;;;;;;;1663331;86;21104;-64
2022/07/11 02:30:18;;;;;;;5.47;3.10;;;;;;;;;;1693112;84;21116;-64
2022/07/11 02:32:44;;;;;;;4.83;3.62;;;;;;;;;;1693468;85;21088;-64
2022/07/11 02:35:10;;;;;;;3.95;3.10;;;;;;;;;;1740774;82;21070;-64
2022/07/11 02:37:37;;;;;;;5.80;4.45;;;;;;;;;;1692561;85;21504;-64
2022/07/11 02:40:04;;;;;;;6.72;3.42;;;;;;;;;;1740745;82;21057;-64
2022/07/11 02:42:30;;;;;;;5.37;3.90;;;;;;;;;;1740701;82;21552;-64
2022/07/11 02:44:56;;;;;;;5.42;3.30;;;;;;;;;;1741113;82;21062;-64
2022/07/11 02:47:23;;;;;;;4.30;3.20;;;;;;;;;;1705628;84;21138;-64
2022/07/11 02:49:50;;;;;;;4.20;2.90;;;;;;;;;;1702306;83;21048;-64
2022/07/11 02:52:16;;;;;;;4.37;3.17;;;;;;;;;;1740571;82;21475;-64
2022/07/11 02:54:43;;;;;;;5.33;3.72;;;;;;;;;;1705447;84;21047;-65
2022/07/11 02:57:09;;;;;;;5.58;3.77;;;;;;;;;;1665168;86;21662;-65
2022/07/11 02:59:35;;;;;;;7.00;4.20;;;;;;;;;;1687703;85;21534;-65
2022/07/11 03:02:04;;;;;;;7.87;4.00;;;;;;;;;;1693607;85;20973;-65
2022/07/11 03:04:29;;;;;;;7.33;3.72;;;;;;;;;;1747654;82;21088;-64
2022/07/11 03:06:57;;;;;;;6.83;4.70;;;;;;;;;;1754493;81;21040;-64
2022/07/11 03:09:23;;;;;;;8.90;5.42;;;;;;;;;;1754641;81;21005;-64
2022/07/11 03:11:50;;;;;;;7.40;4.75;;;;;;;;;;1755083;82;21079;-64
2022/07/11 03:14:17;;;;;;;8.60;5.25;;;;;;;;;;1755260;82;21048;-65
2022/07/11 03:16:43;;;;;;;12.25;6.60;;;;;;;;;;1756942;80;21040;-65
2022/07/11 03:19:09;;;;;;;11.53;7.20;;;;;;;;;;1755088;82;21044;-65
2022/07/11 03:21:36;;;;;;;10.58;7.20;;;;;;;;;;1755230;81;21209;-65
2022/07/11 03:24:03;;;;;;;11.20;6.83;;;;;;;;;;1755208;81;21054;-65
2022/07/11 03:26:30;;;;;;;13.13;7.50;;;;;;;;;;1716775;83;21041;-65
2022/07/11 03:28:56;;;;;;;13.98;7.78;;;;;;;;;;1680365;85;21015;-65
2022/07/11 03:31:22;;;;;;;17.90;8.58;;;;;;;;;;1716893;83;21502;-65
2022/07/11 03:33:48;;;;;;;15.80;9.75;;;;;;;;;;1755353;82;21554;-65
2022/07/11 03:36:14;;;;;;;19.70;10.60;;;;;;;;;;1755052;82;21057;-64
2022/07/11 03:38:40;;;;;;;17.65;9.35;;;;;;;;;;1754571;81;21071;-64
2022/07/11 03:41:06;;;;;;;19.07;10.03;;;;;;;;;;1754932;82;21085;-64
2022/07/11 03:43:32;;;;;;;18.82;11.20;;;;;;;;;;1755367;82;21065;-64
2022/07/11 03:45:58;;;;;;;18.40;9.60;;;;;;;;;;1755192;82;21547;-65
2022/07/11 03:48:24;;;;;;;17.50;9.23;;;;;;;;;;1754934;82;21025;-64
2022/07/11 03:50:50;;;;;;;18.87;12.03;;;;;;;;;;1716755;83;21112;-65
2022/07/11 03:53:17;;;;;;;18.00;10.05;;;;;;;;;;1680107;84;21100;-65
2022/07/11 03:55:43;;;;;;;21.12;11.78;;;;;;;;;;1731385;83;21524;-65
2022/07/11 03:58:09;;;;;;;25.35;13.60;;;;;;;;;;1755532;82;21045;-65
2022/07/11 04:00:35;;;;;;;25.80;14.47;;;;;;;;;;1754873;82;21040;-65
2022/07/11 04:03:01;;;;;;;27.50;12.78;;;;;;;;;;1755072;81;21354;-65
2022/07/11 04:05:29;;;;;;;25.30;13.68;;;;;;;;;;1743323;81;21554;-65
2022/07/11 04:07:55;;;;;;;23.42;13.08;;;;;;;;;;1740968;82;21060;-64
2022/07/11 04:10:21;;;;;;;28.45;15.43;;;;;;;;;;1741169;82;21019;-63
2022/07/11 04:12:48;;;;;;;23.65;13.22;;;;;;;;;;1741037;82;21074;-64
2022/07/11 04:15:14;;;;;;;24.07;13.80;;;;;;;;;;1741129;82;21003;-64
2022/07/11 04:17:41;;;;;;;25.37;14.70;;;;;;;;;;1740781;82;21664;-64
2022/07/11 04:20:08;;;;;;;27.02;15.28;;;;;;;;;;1740980;82;21073;-65
2022/07/11 04:22:34;;;;;;;29.90;13.70;;;;;;;;;;1740706;82;21498;-65
2022/07/11 04:25:00;;;;;;;23.57;13.58;;;;;;;;;;1741179;82;21013;-64
2022/07/11 04:27:26;;;;;;;24.07;12.10;;;;;;;;;;1741155;82;21017;-64
2022/07/11 04:29:53;;;;;;;28.42;15.18;;;;;;;;;;1740968;82;21063;-64
2022/07/11 04:32:19;;;;;;;23.38;11.48;;;;;;;;;;1741100;82;21003;-64
2022/07/11 04:34:46;;;;;;;26.70;11.78;;;;;;;;;;1736431;82;21012;-64
2022/07/11 04:37:12;;;;;;;24.07;13.18;;;;;;;;;;1739025;82;21451;-64
2022/07/11 04:39:39;;;;;;;20.77;10.68;;;;;;;;;;1732179;82;21330;-64
2022/07/11 04:42:06;;;;;;;21.60;10.45;;;;;;;;;;1740563;82;21042;-65
2022/07/11 04:44:33;;;;;;;21.20;12.88;;;;;;;;;;1728465;82;21099;-64
2022/07/11 04:46:59;;;;;;;20.65;10.15;;;;;;;;;;1737353;82;21594;-64
2022/07/11 04:49:25;;;;;;;18.52;10.60;;;;;;;;;;1737873;82;20970;-64
2022/07/11 04:51:51;;;;;;;19.90;10.80;;;;;;;;;;1735961;82;21065;-63
2022/07/11 04:54:17;;;;;;;18.75;10.68;;;;;;;;;;1740236;82;21037;-65
2022/07/11 04:56:43;;;;;;;20.68;10.82;;;;;;;;;;1740604;82;21034;-65
2022/07/11 04:59:10;;;;;;;18.55;9.20;;;;;;;;;;1740629;82;21036;-65
2022/07/11 05:01:36;;;;;;;20.12;9.25;;;;;;;;;;1733911;81;21092;-65
2022/07/11 05:04:03;;;;;;;14.50;8.55;;;;;;;;;;1701028;83;21077;-66
2022/07/11 05:06:29;;;;;;;18.00;9.38;;;;;;;;;;1703846;84;21078;-65
2022/07/11 05:08:55;;;;;;;15.18;9.10;;;;;;;;;;1726637;82;22100;-64
2022/07/11 05:11:23;;;;;;;15.85;8.93;;;;;;;;;;1693603;85;21047;-64
2022/07/11 05:13:49;;;;;;;15.32;8.33;;;;;;;;;;1740899;82;21018;-65
2022/07/11 05:16:15;;;;;;;16.77;9.00;;;;;;;;;;1693392;85;21036;-65
2022/07/11 05:18:41;;;;;;;14.45;8.48;;;;;;;;;;1741202;81;21504;-66
2022/07/11 05:21:07;;;;;;;13.83;9.25;;;;;;;;;;1729711;82;21051;-65
2022/07/11 05:23:34;;;;;;;15.50;8.15;;;;;;;;;;1705059;84;21078;-65
2022/07/11 05:25:59;;;;;;;12.05;7.62;;;;;;;;;;1692736;85;21062;-65
2022/07/11 05:28:25;;;;;;;14.00;7.55;;;;;;;;;;1693696;85;22197;-65
2022/07/11 05:30:52;;;;;;;12.40;7.62;;;;;;;;;;1740954;82;21163;-65
2022/07/11 05:33:18;;;;;;;12.73;8.15;;;;;;;;;;1693280;85;21052;-64
2022/07/11 05:35:45;;;;;;;15.63;8.48;;;;;;;;;;1737748;81;21034;-65
2022/07/11 05:38:11;;;;;;;12.20;7.72;;;;;;;;;;1692966;83;21029;-66
2022/07/11 05:40:37;;;;;;;14.15;7.53;;;;;;;;;;1740881;82;21021;-65
2022/07/11 05:43:04;;;;;;;11.60;7.60;;;;;;;;;;1693093;83;21504;-65
2022/07/11 05:45:30;;;;;;;15.40;8.50;;;;;;;;;;1737673;82;21051;-81
2022/07/11 05:47:56;;;;;;;12.98;6.37;;;;;;;;;;1751779;81;21034;-68
2022/07/11 05:50:22;;;;;;;12.90;7.40;;;;;;;;;;1737360;82;21047;-67
2022/07/11 05:52:48;;;;;;;14.90;8.53;;;;;;;;;;1727419;82;21531;-67
2022/07/11 05:55:15;;;;;;;12.93;7.40;;;;;;;;;;1773585;81;21013;-67
2022/07/11 05:57:41;;;;;;;14.10;7.33;;;;;;;;;;1739980;82;21033;-67
2022/07/11 06:00:08;;;;;;;11.57;7.70;;;;;;;;;;1693348;85;21519;-66
2022/07/11 06:02:35;;;;;;;15.43;8.70;;;;;;;;;;1739970;81;21041;-67
2022/07/11 06:05:01;;;;;;;10.88;7.37;;;;;;;;;;1698089;83;21021;-67
2022/07/11 06:10:12;;;;;;;11.53;7.22;;;;;;;;;;1698620;84;21020;-67
2022/07/11 06:12:41;;;;;;;12.43;7.30;;;;;;;;;;1698553;84;21021;-67
2022/07/11 06:15:07;;;;;;;11.10;7.03;;;;;;;;;;1698522;84;21560;-67
2022/07/11 06:17:35;;;;;;;12.65;7.05;;;;;;;;;;1698405;83;21112;-67
2022/07/11 06:20:01;;;;;;;10.72;6.40;;;;;;;;;;1698711;84;21008;-67
2022/07/11 06:22:28;;;;;;;11.25;6.47;;;;;;;;;;1698440;84;21544;-67
2022/07/11 06:24:54;;;;;;;12.03;6.58;;;;;;;;;;1696937;84;21020;-67
2022/07/11 06:27:20;;;;;;;10.43;6.97;;;;;;;;;;1694098;84;21012;-67
2022/07/11 06:29:46;;;;;;;11.03;7.00;;;;;;;;;;1698319;84;21020;-66
2022/07/11 06:32:12;;;;;;;10.00;5.62;;;;;;;;;;1697084;84;21111;-66
2022/07/11 06:34:38;;;;;;;10.40;5.80;;;;;;;;;;1698111;84;21591;-66
2022/07/11 06:37:05;;;;;;;9.18;5.35;;;;;;;;;;1698012;84;22233;-66
2022/07/11 06:39:33;;;;;;;9.80;5.90;;;;;;;;;;1698173;84;21068;-66
2022/07/11 06:41:58;;;;;;;12.00;5.97;;;;;;;;;;1698701;84;21044;-66
2022/07/11 06:44:24;;;;;;;9.85;5.97;;;;;;;;;;1698582;84;21024;-67
2022/07/11 06:46:52;;;;;;;16.37;6.00;;;;;;;;;;1698708;84;21528;-67
2022/07/11 06:49:18;;;;;;;10.03;6.42;;;;;;;;;;1698569;83;21001;-69
2022/07/11 06:51:44;;;;;;;10.43;5.33;;;;;;;;;;1698302;84;21064;-67
2022/07/11 06:54:10;;;;;;;10.43;5.78;;;;;;;;;;1698719;84;21012;-66
2022/07/11 06:56:36;;;;;;;7.25;5.30;;;;;;;;;;1697560;84;21064;-65
2022/07/11 06:59:02;;;;;;;8.93;5.22;;;;;;;;;;1697696;84;21115;-65
2022/07/11 07:01:29;;;;;;;13.22;5.05;;;;;;;;;;1696944;84;21029;-67
2022/07/11 07:03:55;;;;;;;8.75;5.10;;;;;;;;;;1694577;83;21103;-66
2022/07/11 07:06:21;;;;;;;9.00;5.28;;;;;;;;;;1674287;84;21101;-67
2022/07/11 07:08:47;;;;;;;6.17;4.25;;;;;;;;;;1704653;83;21025;-67
2022/07/11 07:11:13;;;;;;;5.78;3.87;;;;;;;;;;1734462;82;21484;-66
2022/07/11 07:13:41;;;;;;;8.20;4.28;;;;;;;;;;1701061;83;21033;-74
2022/07/11 07:16:07;;;;;;;7.25;4.22;;;;;;;;;;1691895;85;21098;-75
2022/07/11 07:18:33;;;;;;;8.75;4.00;;;;;;;;;;1728272;82;21563;-77
2022/07/11 07:20:59;;;;;;;6.30;3.80;;;;;;;;;;1692561;85;20950;-66
2022/07/11 07:23:26;;;;;;;9.50;3.95;;;;;;;;;;1732459;81;21014;-65
2022/07/11 07:25:53;;;;;;;6.20;4.42;;;;;;;;;;1692682;85;21010;-67
2022/07/11 07:28:23;;;;;;;5.70;3.75;;;;;;;;;;1704524;83;21065;-66
2022/07/11 07:30:49;;;;;;;6.50;3.65;;;;;;;;;;1735987;82;21514;-66
2022/07/11 07:33:15;;;;;;;8.30;3.92;;;;;;;;;;1702790;83;21299;-66
2022/07/11 07:35:41;;;;;;;7.78;3.42;;;;;;;;;;1768729;81;21143;-66
2022/07/11 07:38:09;;;;;;;8.40;3.05;;;;;;;;;;1689472;85;21039;-66
2022/07/11 07:40:35;;;;;;;8.38;4.05;;;;;;;;;;1735695;82;21033;-66
2022/07/11 07:43:01;;;;;;;6.08;3.12;;;;;;;;;;1692854;83;21032;-65
2022/07/11 07:45:28;;;;;;;5.83;3.20;;;;;;;;;;1739326;81;21080;-66
2022/07/11 07:47:54;;;;;;;5.50;3.30;;;;;;;;;;1688673;85;21521;-67
2022/07/11 07:50:22;;;;;;;7.80;3.12;;;;;;;;;;1738581;81;21519;-66
2022/07/11 07:52:48;;;;;;;5.35;2.67;;;;;;;;;;1735483;82;21609;-67
2022/07/11 07:55:14;;;;;;;4.17;2.60;;;;;;;;;;1732315;81;21018;-67
2022/07/11 07:57:40;;;;;;;5.75;3.00;;;;;;;;;;1727397;82;21085;-66
2022/07/11 08:02:53;;;;;;;3.58;2.33;;;;;;;;;;1727381;82;21119;-65
2022/07/11 08:05:19;;;;;;;3.40;2.37;;;;;;;;;;1702944;83;21029;-66
2022/07/11 08:07:45;;;;;;;4.55;2.40;;;;;;;;;;1700753;84;20965;-66
2022/07/11 08:10:11;;;;;;;4.12;2.40;;;;;;;;;;1705282;84;21495;-66
2022/07/11 08:12:38;;;;;;;3.08;2.20;;;;;;;;;;1689125;85;21036;-66
2022/07/11 08:15:06;;;;;;;3.50;2.20;;;;;;;;;;1740947;82;21093;-66
2022/07/11 08:17:32;;;;;;;4.42;2.40;;;;;;;;;;1731194;82;21555;-67
2022/07/11 08:19:58;;;;;;;5.30;2.77;;;;;;;;;;1740415;82;21741;-67
2022/07/11 08:22:25;;;;;;;3.47;2.08;;;;;;;;;;1693348;85;21069;-67
2022/07/11 08:24:51;;;;;;;3.65;2.20;;;;;;;;;;1740656;82;21009;-66
2022/07/11 08:27:17;;;;;;;5.15;2.20;;;;;;;;;;1741130;82;21025;-66
2022/07/11 08:29:43;;;;;;;5.12;2.30;;;;;;;;;;1705910;84;21023;-66
2022/07/11 08:32:11;;;;;;;3.42;1.95;;;;;;;;;;1665032;86;21052;-66
2022/07/11 08:34:37;;;;;;;3.22;2.37;;;;;;;;;;1694769;84;21069;-67
2022/07/11 08:37:04;;;;;;;4.20;2.10;;;;;;;;;;1741472;82;21067;-66
2022/07/11 08:39:30;;;;;;;2.27;2.02;;;;;;;;;;1693662;85;21092;-67
2022/07/11 08:41:57;;;;;;;3.33;2.35;;;;;;;;;;1728589;82;21523;-66
2022/07/11 08:44:24;;;;;;;2.83;2.08;;;;;;;;;;1725877;83;21005;-66
2022/07/11 08:46:50;;;;;;;3.37;2.10;;;;;;;;;;1693484;83;21069;-67
2022/07/11 08:49:16;;;;;;;3.08;2.30;;;;;;;;;;1725815;83;21087;-66
2022/07/11 08:51:42;;;;;;;3.58;2.05;;;;;;;;;;1703383;83;21084;-66
2022/07/11 08:54:10;;;;;;;3.77;2.30;;;;;;;;;;1676051;85;21052;-66
2022/07/11 08:56:37;;;;;;;3.70;2.15;;;;;;;;;;1667667;85;21616;-66
2022/07/11 08:59:04;;;;;;;2.65;2.08;;;;;;;;;;1693334;85;21036;-65
2022/07/11 09:01:31;;;;;;;4.22;2.30;;;;;;;;;;1741187;81;21075;-66
2022/07/11 09:03:58;;;;;;;3.30;2.42;;;;;;;;;;1695016;83;22068;-66
2022/07/11 09:06:24;;;;;;;4.42;2.40;;;;;;;;;;1673421;84;20988;-66
2022/07/11 09:08:49;;;;;;;4.45;2.20;;;;;;;;;;1699138;84;21250;-66
2022/07/11 09:11:16;;;;;;;5.08;2.40;;;;;;;;;;1681351;84;21078;-66
2022/07/11 09:13:44;;;;;;;5.08;2.33;;;;;;;;;;1677900;84;21076;-65
2022/07/11 09:16:10;;;;;;;3.27;2.70;;;;;;;;;;1699828;84;21140;-66
2022/07/11 09:18:41;;;;;;;5.17;2.98;;;;;;;;;;1699939;84;22157;-66
2022/07/11 09:26:46;;;;;;;6.37;3.80;;;;;;;;;;1686332;84;21037;-66
2022/07/11 09:29:13;;;;;;;10.18;8.45;;;;;;;;;;1697338;84;21085;-66
2022/07/11 09:31:40;;;;;;;26.00;22.77;;;;;;;;;;1731246;82;21020;-67
2022/07/11 09:34:13;;;;;;;6.62;3.52;;;;;;;;;;1730060;82;21002;-67
2022/07/11 09:36:40;;;;;;;8.98;3.70;;;;;;;;;;1728690;82;20989;-66
2022/07/11 09:39:07;;;;;;;5.15;3.00;;;;;;;;;;1732062;82;21036;-66
2022/07/11 09:41:33;;;;;;;3.35;2.40;;;;;;;;;;1731222;83;21088;-65
2022/07/11 09:44:07;;;;;;;3.20;2.30;;;;;;;;;;1732071;83;21028;-66
2022/07/11 09:46:33;;;;;;;3.62;2.60;;;;;;;;;;1732034;83;21028;-66
2022/07/11 09:49:00;;;;;;;4.60;2.50;;;;;;;;;;1730682;82;21056;-65
2022/07/11 09:51:27;;;;;;;5.75;2.60;;;;;;;;;;1731477;82;21067;-67
2022/07/11 09:53:55;;;;;;;16.90;14.80;;;;;;;;;;1732143;83;21089;-67
2022/07/11 09:56:35;;;;;;;7.75;4.62;;;;;;;;;;1731931;83;21008;-66
2022/07/11 09:59:02;;;;;;;8.23;3.77;;;;;;;;;;1731744;83;20997;-66
2022/07/11 10:01:31;;;;;;;6.33;3.47;;;;;;;;;;1730247;82;21060;-66
2022/07/11 10:03:58;;;;;;;7.40;3.90;;;;;;;;;;1730233;82;21001;-66
2022/07/11 10:06:25;;;;;;;7.62;4.12;;;;;;;;;;1680949;83;21108;-67
2022/07/11 10:08:52;;;;;;;7.65;4.22;;;;;;;;;;1685650;84;21059;-66
2022/07/11 10:11:18;;;;;;;6.17;3.62;;;;;;;;;;1742504;81;20997;-65
2022/07/11 10:13:44;;;;;;;7.78;4.20;;;;;;;;;;1703038;83;21073;-65
2022/07/11 10:16:12;;;;;;;8.05;4.55;;;;;;;;;;1701383;83;21024;-66
2022/07/11 10:18:43;;;;;;;6.83;3.80;;;;;;;;;;1742963;82;21076;-67
2022/07/11 10:21:11;;;;;;;6.65;4.33;;;;;;;;;;1693143;83;21038;-66
2022/07/11 10:23:45;;;;;;;7.25;3.90;;;;;;;;;;1666738;85;21094;-66
2022/07/11 10:26:17;;;;;;;16.82;5.10;;;;;;;;;;1691796;83;21068;-66
2022/07/11 10:28:47;;;;;;;7.50;4.17;;;;;;;;;;1740697;82;21009;-65
2022/07/11 10:31:19;;;;;;;9.48;3.80;;;;;;;;;;1693454;85;21009;-65
2022/07/11 10:34:02;;;;;;;10.78;4.60;;;;;;;;;;1741395;81;20987;-67
2022/07/11 10:36:29;;;;;;;;;;;;;;;;;;1745219;82;21082;-66
2022/07/11 10:39:09;;;;;;;8.83;4.10;;;;;;;;;;1743121;82;20136;-66
2022/07/11 10:41:35;;;;;;;10.72;4.75;;;;;;;;;;1677057;84;21115;-67
2022/07/11 10:44:01;;;;;;;11.35;4.95;;;;;;;;;;1671660;85;21452;-66
2022/07/11 10:46:28;;;;;;;8.23;4.55;;;;;;;;;;1740456;81;21094;-65
2022/07/11 10:50:15;;;;;;;9.75;5.35;;;;;;;;;;1789653;79;23616;-66
2022/07/11 10:52:41;;;;;;;7.70;4.67;;;;;;;;;;1748745;81;21005;-65
2022/07/11 10:55:18;;;;;;;9.73;5.33;;;;;;;;;;1758182;81;21521;-65
2022/07/11 10:57:46;;;;;;;8.75;4.25;;;;;;;;;;1761424;80;21060;-66
2022/07/11 11:00:17;;;;;;;9.08;4.42;;;;;;;;;;1740525;81;21115;-66
2022/07/11 11:02:59;;;;;;;9.98;5.42;;;;;;;;;;1754794;81;21135;-66
2022/07/11 11:05:44;;;;;;;6.65;4.62;;;;;;;;;;1753466;82;21048;-65
2022/07/11 11:08:30;;;;;;;6.30;4.17;;;;;;;;;;1777022;80;21084;-65
2022/07/11 11:10:56;;;;;;;7.95;3.95;;;;;;;;;;1751599;82;21004;-65
2022/07/11 11:13:23;;;;;;;8.75;4.10;;;;;;;;;;1749086;82;21013;-66
2022/07/11 11:15:52;;;;;;;7.25;3.45;;;;;;;;;;1752576;82;21004;-66
2022/07/11 11:18:26;;;;;;;6.92;3.70;;;;;;;;;;1753387;82;21060;-66
2022/07/11 11:21:04;;;;;;;9.40;4.20;;;;;;;;;;1753369;82;21029;-66
2022/07/11 11:23:34;;;;;;;6.65;3.52;;;;;;;;;;1753484;81;21024;-66
2022/07/11 11:26:05;;;;;;;6.92;3.52;;;;;;;;;;1753310;82;21068;-65
2022/07/11 11:28:31;;;;;;;6.30;3.30;;;;;;;;;;1751723;82;21072;-66
2022/07/11 11:30:57;;;;;;;5.30;3.15;;;;;;;;;;1753361;82;21033;-66
2022/07/11 11:33:27;;;;;;;5.17;3.20;;;;;;;;;;1753352;82;21501;-66
2022/07/11 11:36:01;;;;;;;5.47;3.00;;;;;;;;;;1753604;82;21208;-65
2022/07/11 11:38:27;;;;;;;4.73;3.23;;;;;;;;;;1753748;82;21476;-66
2022/07/11 11:40:53;;;;;;;4.03;2.67;;;;;;;;;;1751837;82;21139;-65
2022/07/11 11:43:20;;;;;;;4.83;2.87;;;;;;;;;;1750451;80;20997;-66
2022/07/11 11:45:49;;;;;;;5.80;2.83;;;;;;;;;;1750531;80;20961;-65
2022/07/11 11:48:32;;;;;;;5.70;3.50;;;;;;;;;;1748835;82;21083;-66
2022/07/11 11:51:04;;;;;;;6.67;3.20;;;;;;;;;;1735180;82;21063;-65
2022/07/11 11:53:37;;;;;;;4.90;2.87;;;;;;;;;;1732794;82;21016;-66
2022/07/11 11:56:19;;;;;;;4.25;2.85;;;;;;;;;;1730709;82;21059;-66
2022/07/11 11:58:46;;;;;;;4.28;3.10;;;;;;;;;;1736877;82;21111;-66
2022/07/11 12:01:12;;;;;;;4.87;3.35;;;;;;;;;;1736893;82;21877;-66
2022/07/11 12:03:57;;;;;;;6.15;3.17;;;;;;;;;;1737841;82;21040;-66
2022/07/11 12:06:24;;;;;;;5.67;3.20;;;;;;;;;;1737186;82;21009;-66
2022/07/11 12:08:50;;;;;;;7.92;3.75;;;;;;;;;;1726970;82;21149;-65
2022/07/11 12:11:16;;;;;;;4.85;3.30;;;;;;;;;;1752832;82;21029;-66
2022/07/11 12:13:43;;;;;;;6.42;3.47;;;;;;;;;;1741103;82;21020;-66
2022/07/11 12:18:59;;;;;;;5.65;3.05;;;;;;;;;;1744583;82;21476;-66
2022/07/11 12:21:25;;;;;;;8.18;3.50;;;;;;;;;;1736369;82;21056;-66
2022/07/11 12:23:51;;;;;;;11.33;7.97;;;;;;;;;;1741293;82;21009;-66
2022/07/11 12:26:17;;;;;;;5.12;3.67;;;;;;;;;;1734098;82;21005;-66
2022/07/11 12:29:01;;;;;;;5.22;3.45;;;;;;;;;;1753922;82;21009;-65
2022/07/11 12:31:29;;;;;;;8.43;3.12;;;;;;;;;;1745842;82;21468;-65
2022/07/11 12:33:55;;;;;;;6.40;3.40;;;;;;;;;;1717947;82;21028;-65
2022/07/11 12:36:23;;;;;;;6.10;3.72;;;;;;;;;;1746078;82;21036;-66
2022/07/11 12:38:53;;;;;;;5.95;3.87;;;;;;;;;;1744841;82;21033;-66
2022/07/11 12:41:20;;;;;;;7.50;3.60;;;;;;;;;;1731632;82;21524;-66
2022/07/11 12:46:31;;;;;;;5.65;3.10;;;;;;;;;;1748504;82;21047;-65
2022/07/11 12:49:00;;;;;;;7.95;3.77;;;;;;;;;;1734167;82;21041;-67
2022/07/11 12:51:31;;;;;;;6.47;3.58;;;;;;;;;;1731948;82;21048;-66
2022/07/11 12:53:59;;;;;;;5.35;3.80;;;;;;;;;;1719405;82;21173;-66
2022/07/11 12:56:25;;;;;;;4.67;3.45;;;;;;;;;;1724997;82;21005;-66
2022/07/11 12:58:51;;;;;;;7.17;3.55;;;;;;;;;;1723070;82;21521;-66
2022/07/11 13:01:17;;;;;;;5.72;3.45;;;;;;;;;;1730779;82;21060;-67
2022/07/11 13:03:43;;;;;;;5.47;3.65;;;;;;;;;;1739463;82;21068;-66
2022/07/11 13:06:11;;;;;;;6.62;3.80;;;;;;;;;;1721271;82;21543;-65
2022/07/11 13:08:44;;;;;;;10.50;4.58;;;;;;;;;;1726545;82;21044;-66
2022/07/11 13:11:12;;;;;;;6.22;3.80;;;;;;;;;;1734604;82;21533;-66
2022/07/11 13:13:40;;;;;;;6.15;3.60;;;;;;;;;;1683752;85;21012;-65
2022/07/11 13:16:07;;;;;;;5.42;3.50;;;;;;;;;;1728235;82;21017;-66
2022/07/11 13:18:33;;;;;;;7.72;4.33;;;;;;;;;;1733598;82;21040;-66
2022/07/11 13:21:00;;;;;;;8.55;4.53;;;;;;;;;;1746101;82;21025;-66
2022/07/11 13:23:27;;;;;;;7.58;3.80;;;;;;;;;;1740263;82;21044;-66
2022/07/11 13:25:59;;;;;;;5.47;3.92;;;;;;;;;;1729023;82;21076;-67
2022/07/11 13:28:27;;;;;;;5.08;3.40;;;;;;;;;;1683665;85;21683;-65
2022/07/11 13:30:53;;;;;;;5.92;3.10;;;;;;;;;;1733921;82;21048;-66
2022/07/11 13:33:19;;;;;;;6.17;3.10;;;;;;;;;;1736920;82;21091;-66
2022/07/11 13:35:46;;;;;;;4.33;2.70;;;;;;;;;;1696752;84;21083;-67
2022/07/11 13:38:13;;;;;;;3.25;2.67;;;;;;;;;;1677194;84;21062;-68
2022/07/11 13:40:39;;;;;;;4.25;2.50;;;;;;;;;;1724531;82;21065;-70
2022/07/11 13:43:05;;;;;;;3.58;2.35;;;;;;;;;;1733454;82;21422;-66
2022/07/11 13:45:33;;;;;;;5.03;2.62;;;;;;;;;;1727788;82;21552;-66
2022/07/11 13:48:00;;;;;;;5.97;2.83;;;;;;;;;;1733783;82;21064;-66
2022/07/11 13:50:28;;;;;;;4.67;2.55;;;;;;;;;;1752470;81;21497;-66
2022/07/11 13:52:54;;;;;;;6.37;2.70;;;;;;;;;;1747573;82;21012;-67
2022/07/11 13:55:22;;;;;;;5.17;2.65;;;;;;;;;;1730398;82;21012;-67
2022/07/11 13:57:51;;;;;;;4.42;2.47;;;;;;;;;;1727045;82;21044;-65
2022/07/11 14:00:19;;;;;;;4.15;2.30;;;;;;;;;;1740902;82;21543;-65
2022/07/11 14:02:46;;;;;;;6.37;2.20;;;;;;;;;;1730390;82;21107;-67
2022/07/11 14:05:12;;;;;;;3.70;2.42;;;;;;;;;;1725013;82;21080;-67
2022/07/11 14:07:38;;;;;;;3.98;2.40;;;;;;;;;;1727068;82;21068;-65
2022/07/11 14:10:07;;;;;;;6.55;2.37;;;;;;;;;;1740192;82;21559;-66
2022/07/11 14:12:33;;;;;;;5.03;2.52;;;;;;;;;;1748231;82;21558;-66
2022/07/11 14:15:00;;;;;;;5.65;2.62;;;;;;;;;;1729070;82;21099;-66
2022/07/11 14:17:27;;;;;;;3.40;2.15;;;;;;;;;;1726028;82;21512;-66
2022/07/11 14:19:54;;;;;;;5.55;2.42;;;;;;;;;;1744521;82;21024;-65
2022/07/11 14:22:20;;;;;;;3.72;2.15;;;;;;;;;;1753202;82;21221;-66
2022/07/11 14:24:46;;;;;;;3.25;2.40;;;;;;;;;;1753669;82;21611;-66
2022/07/11 14:27:13;;;;;;;3.20;2.02;;;;;;;;;;1741314;82;21048;-66
2022/07/11 14:29:41;;;;;;;4.28;2.60;;;;;;;;;;1746819;82;21045;-66
2022/07/11 14:32:08;;;;;;;4.87;2.25;;;;;;;;;;1732489;82;21139;-67
2022/07/11 14:34:34;;;;;;;4.25;2.40;;;;;;;;;;1728423;82;21052;-65
2022/07/11 14:37:00;;;;;;;4.50;2.42;;;;;;;;;;1737833;82;21570;-66
2022/07/11 14:39:27;;;;;;;3.22;2.30;;;;;;;;;;1741324;82;21033;-67
2022/07/11 14:41:53;;;;;;;2.47;1.90;;;;;;;;;;1728836;81;21008;-67
2022/07/11 14:44:20;;;;;;;3.87;2.42;;;;;;;;;;1737063;82;21033;-67
2022/07/11 14:46:46;;;;;;;3.58;2.20;;;;;;;;;;1727922;82;21064;-66
2022/07/11 14:49:13;;;;;;;2.37;1.98;;;;;;;;;;1740377;81;21029;-67
2022/07/11 14:51:39;;;;;;;5.62;2.37;;;;;;;;;;1734089;82;20969;-66
2022/07/11 14:54:05;;;;;;;2.80;2.17;;;;;;;;;;1733753;82;21020;-67
2022/07/11 14:56:32;;;;;;;5.42;2.20;;;;;;;;;;1736442;82;21021;-67
2022/07/11 14:58:58;;;;;;;4.58;2.40;;;;;;;;;;1737428;82;21433;-66